sensor_id;sensor_type;location;lat;lon;timestamp;P1;durP1;ratioP1;P2;durP2;ratioP2
52838;SDS011;39219;53.678;9.856;2022-10-16T00:02:17;16.55;;;8.93;;
52838;SDS011;39219;53.678;9.856;2022-10-16T00:04:43;17.13;;;8.80;;
52838;SDS011;39219;53.678;9.856;2022-10-16T00:07:10;15.85;;;8.43;;
52838;SDS011;39219;53.678;9.856;2022-10-16T00:09:36;14.32;;;7.78;;
52838;SDS011;39219;53.678;9.856;2022-10-16T00:12:03;16.20;;;8.63;;
52838;SDS011;39219;53.678;9.856;2022-10-16T00:14:33;14.70;;;8.25;;
52838;SDS011;39219;53.678;9.856;2022-10-16T00:16:59;16.13;;;8.50;;
52838;SDS011;39219;53.678;9.856;2022-10-16T00:19:25;14.45;;;7.93;;
52838;SDS011;39219;53.678;9.856;2022-10-16T00:21:52;15.65;;;8.65;;
52838;SDS011;39219;53.678;9.856;2022-10-16T00:24:18;16.95;;;8.65;;
52838;SDS011;39219;53.678;9.856;2022-10-16T00:26:45;15.02;;;8.38;;
52838;SDS011;39219;53.678;9.856;2022-10-16T00:29:11;17.85;;;8.77;;
52838;SDS011;39219;53.678;9.856;2022-10-16T00:31:39;15.10;;;7.90;;
52838;SDS011;39219;53.678;9.856;2022-10-16T00:34:05;13.05;;;7.28;;
52838;SDS011;39219;53.678;9.856;2022-10-16T00:36:32;13.60;;;7.20;;
52838;SDS011;39219;53.678;9.856;2022-10-16T00:38:58;15.98;;;7.20;;
52838;SDS011;39219;53.678;9.856;2022-10-16T00:41:26;11.80;;;6.93;;
52838;SDS011;39219;53.678;9.856;2022-10-16T00:43:53;12.32;;;6.40;;
52838;SDS011;39219;53.678;9.856;2022-10-16T00:46:21;12.52;;;5.88;;
52838;SDS011;39219;53.678;9.856;2022-10-16T00:48:51;10.15;;;5.75;;
52838;SDS011;39219;53.678;9.856;2022-10-16T00:51:25;10.20;;;5.35;;
52838;SDS011;39219;53.678;9.856;2022-10-16T00:53:58;10.63;;;5.07;;
52838;SDS011;39219;53.678;9.856;2022-10-16T00:56:25;11.05;;;5.20;;
52838;SDS011;39219;53.678;9.856;2022-10-16T00:58:52;11.52;;;5.20;;
52838;SDS011;39219;53.678;9.856;2022-10-16T01:01:18;12.05;;;4.70;;
52838;SDS011;39219;53.678;9.856;2022-10-16T01:03:45;8.43;;;4.47;;
52838;SDS011;39219;53.678;9.856;2022-10-16T01:06:16;8.07;;;4.20;;
52838;SDS011;39219;53.678;9.856;2022-10-16T01:08:53;8.05;;;4.50;;
52838;SDS011;39219;53.678;9.856;2022-10-16T01:11:27;9.63;;;4.40;;
52838;SDS011;39219;53.678;9.856;2022-10-16T01:14:02;6.45;;;3.80;;
52838;SDS011;39219;53.678;9.856;2022-10-16T01:16:33;9.27;;;3.95;;
52838;SDS011;39219;53.678;9.856;2022-10-16T01:19:06;7.22;;;3.85;;
52838;SDS011;39219;53.678;9.856;2022-10-16T01:21:40;10.38;;;4.03;;
52838;SDS011;39219;53.678;9.856;2022-10-16T01:24:11;10.35;;;4.03;;
52838;SDS011;39219;53.678;9.856;2022-10-16T01:26:50;8.88;;;4.18;;
52838;SDS011;39219;53.678;9.856;2022-10-16T01:29:34;8.98;;;4.32;;
52838;SDS011;39219;53.678;9.856;2022-10-16T01:32:07;9.52;;;4.13;;
52838;SDS011;39219;53.678;9.856;2022-10-16T01:34:38;8.80;;;4.05;;
52838;SDS011;39219;53.678;9.856;2022-10-16T01:37:11;7.07;;;4.00;;
52838;SDS011;39219;53.678;9.856;2022-10-16T01:39:41;7.32;;;3.80;;
52838;SDS011;39219;53.678;9.856;2022-10-16T01:42:14;10.13;;;3.95;;
52838;SDS011;39219;53.678;9.856;2022-10-16T01:44:44;9.30;;;3.83;;
52838;SDS011;39219;53.678;9.856;2022-10-16T01:47:12;8.85;;;4.25;;
52838;SDS011;39219;53.678;9.856;2022-10-16T01:49:39;7.95;;;3.83;;
52838;SDS011;39219;53.678;9.856;2022-10-16T01:52:09;7.25;;;3.53;;
52838;SDS011;39219;53.678;9.856;2022-10-16T01:54:42;8.38;;;3.60;;
52838;SDS011;39219;53.678;9.856;2022-10-16T01:57:13;8.50;;;3.72;;
52838;SDS011;39219;53.678;9.856;2022-10-16T01:59:42;7.93;;;3.60;;
52838;SDS011;39219;53.678;9.856;2022-10-16T02:02:11;7.32;;;3.70;;
52838;SDS011;39219;53.678;9.856;2022-10-16T02:04:42;6.70;;;3.67;;
52838;SDS011;39219;53.678;9.856;2022-10-16T02:07:12;7.72;;;3.58;;
52838;SDS011;39219;53.678;9.856;2022-10-16T02:09:39;9.55;;;3.75;;
52838;SDS011;39219;53.678;9.856;2022-10-16T02:12:08;6.70;;;3.28;;
52838;SDS011;39219;53.678;9.856;2022-10-16T02:14:39;9.15;;;3.67;;
52838;SDS011;39219;53.678;9.856;2022-10-16T02:17:10;8.07;;;3.33;;
52838;SDS011;39219;53.678;9.856;2022-10-16T02:19:37;7.88;;;3.90;;
52838;SDS011;39219;53.678;9.856;2022-10-16T02:22:04;7.60;;;3.60;;
52838;SDS011;39219;53.678;9.856;2022-10-16T02:24:33;9.60;;;3.50;;
52838;SDS011;39219;53.678;9.856;2022-10-16T02:27:05;8.60;;;3.60;;
52838;SDS011;39219;53.678;9.856;2022-10-16T02:29:38;6.53;;;3.25;;
52838;SDS011;39219;53.678;9.856;2022-10-16T02:32:09;7.85;;;3.47;;
52838;SDS011;39219;53.678;9.856;2022-10-16T02:34:38;7.82;;;3.38;;
52838;SDS011;39219;53.678;9.856;2022-10-16T02:37:06;7.47;;;3.13;;
52838;SDS011;39219;53.678;9.856;2022-10-16T02:39:35;7.53;;;3.10;;
52838;SDS011;39219;53.678;9.856;2022-10-16T02:42:03;6.45;;;3.15;;
52838;SDS011;39219;53.678;9.856;2022-10-16T02:44:29;8.07;;;3.20;;
52838;SDS011;39219;53.678;9.856;2022-10-16T02:46:57;7.72;;;3.00;;
52838;SDS011;39219;53.678;9.856;2022-10-16T02:49:23;8.05;;;2.88;;
52838;SDS011;39219;53.678;9.856;2022-10-16T02:51:50;5.65;;;3.00;;
52838;SDS011;39219;53.678;9.856;2022-10-16T02:54:16;5.40;;;2.60;;
52838;SDS011;39219;53.678;9.856;2022-10-16T02:56:43;5.22;;;2.85;;
52838;SDS011;39219;53.678;9.856;2022-10-16T02:59:09;5.07;;;2.92;;
52838;SDS011;39219;53.678;9.856;2022-10-16T03:01:36;4.40;;;2.70;;
52838;SDS011;39219;53.678;9.856;2022-10-16T03:04:03;6.88;;;2.80;;
52838;SDS011;39219;53.678;9.856;2022-10-16T03:06:30;5.63;;;2.90;;
52838;SDS011;39219;53.678;9.856;2022-10-16T03:08:56;6.65;;;2.80;;
52838;SDS011;39219;53.678;9.856;2022-10-16T03:11:23;7.75;;;2.70;;
52838;SDS011;39219;53.678;9.856;2022-10-16T03:13:49;5.65;;;2.67;;
52838;SDS011;39219;53.678;9.856;2022-10-16T03:16:16;6.90;;;2.75;;
52838;SDS011;39219;53.678;9.856;2022-10-16T03:18:42;9.30;;;2.65;;
52838;SDS011;39219;53.678;9.856;2022-10-16T03:21:10;9.40;;;2.80;;
52838;SDS011;39219;53.678;9.856;2022-10-16T03:23:36;6.53;;;2.33;;
52838;SDS011;39219;53.678;9.856;2022-10-16T03:26:03;4.65;;;2.40;;
52838;SDS011;39219;53.678;9.856;2022-10-16T03:28:29;8.88;;;2.58;;
52838;SDS011;39219;53.678;9.856;2022-10-16T03:30:56;12.00;;;3.17;;
52838;SDS011;39219;53.678;9.856;2022-10-16T03:33:22;4.22;;;2.50;;
52838;SDS011;39219;53.678;9.856;2022-10-16T03:35:52;6.53;;;3.00;;
52838;SDS011;39219;53.678;9.856;2022-10-16T03:38:20;6.88;;;2.60;;
52838;SDS011;39219;53.678;9.856;2022-10-16T03:40:47;7.57;;;2.40;;
52838;SDS011;39219;53.678;9.856;2022-10-16T03:43:13;5.10;;;2.70;;
52838;SDS011;39219;53.678;9.856;2022-10-16T03:45:40;5.43;;;2.70;;
52838;SDS011;39219;53.678;9.856;2022-10-16T03:48:06;9.15;;;2.70;;
52838;SDS011;39219;53.678;9.856;2022-10-16T03:50:33;8.32;;;2.92;;
52838;SDS011;39219;53.678;9.856;2022-10-16T03:52:59;5.25;;;2.47;;
52838;SDS011;39219;53.678;9.856;2022-10-16T03:55:27;4.30;;;2.55;;
52838;SDS011;39219;53.678;9.856;2022-10-16T03:57:53;4.50;;;2.80;;
52838;SDS011;39219;53.678;9.856;2022-10-16T04:00:20;8.15;;;2.90;;
52838;SDS011;39219;53.678;9.856;2022-10-16T04:02:46;5.45;;;2.70;;
52838;SDS011;39219;53.678;9.856;2022-10-16T04:05:13;6.70;;;2.60;;
52838;SDS011;39219;53.678;9.856;2022-10-16T04:07:39;7.57;;;3.05;;
52838;SDS011;39219;53.678;9.856;2022-10-16T04:10:06;6.25;;;2.67;;
52838;SDS011;39219;53.678;9.856;2022-10-16T04:12:34;6.18;;;2.70;;
52838;SDS011;39219;53.678;9.856;2022-10-16T04:15:00;5.68;;;2.80;;
52838;SDS011;39219;53.678;9.856;2022-10-16T04:17:27;10.05;;;3.10;;
52838;SDS011;39219;53.678;9.856;2022-10-16T04:19:53;5.13;;;2.67;;
52838;SDS011;39219;53.678;9.856;2022-10-16T04:22:20;7.30;;;3.10;;
52838;SDS011;39219;53.678;9.856;2022-10-16T04:24:46;6.97;;;2.97;;
52838;SDS011;39219;53.678;9.856;2022-10-16T04:27:13;5.22;;;2.83;;
52838;SDS011;39219;53.678;9.856;2022-10-16T04:29:40;5.97;;;2.97;;
52838;SDS011;39219;53.678;9.856;2022-10-16T04:32:07;5.63;;;2.80;;
52838;SDS011;39219;53.678;9.856;2022-10-16T04:34:34;5.70;;;2.83;;
52838;SDS011;39219;53.678;9.856;2022-10-16T04:37:01;6.43;;;2.80;;
52838;SDS011;39219;53.678;9.856;2022-10-16T04:39:27;6.80;;;2.60;;
52838;SDS011;39219;53.678;9.856;2022-10-16T04:41:54;5.78;;;2.80;;
52838;SDS011;39219;53.678;9.856;2022-10-16T04:44:20;8.18;;;2.67;;
52838;SDS011;39219;53.678;9.856;2022-10-16T04:46:49;6.00;;;2.80;;
52838;SDS011;39219;53.678;9.856;2022-10-16T04:49:16;4.40;;;2.42;;
52838;SDS011;39219;53.678;9.856;2022-10-16T04:51:42;6.32;;;2.78;;
52838;SDS011;39219;53.678;9.856;2022-10-16T04:54:09;7.35;;;3.00;;
52838;SDS011;39219;53.678;9.856;2022-10-16T04:56:36;6.50;;;2.90;;
52838;SDS011;39219;53.678;9.856;2022-10-16T04:59:08;6.28;;;2.63;;
52838;SDS011;39219;53.678;9.856;2022-10-16T05:01:34;4.95;;;2.78;;
52838;SDS011;39219;53.678;9.856;2022-10-16T05:04:02;4.43;;;2.67;;
52838;SDS011;39219;53.678;9.856;2022-10-16T05:06:29;6.00;;;2.70;;
52838;SDS011;39219;53.678;9.856;2022-10-16T05:08:55;6.28;;;2.95;;
52838;SDS011;39219;53.678;9.856;2022-10-16T05:11:22;6.65;;;2.85;;
52838;SDS011;39219;53.678;9.856;2022-10-16T05:13:48;5.22;;;2.92;;
52838;SDS011;39219;53.678;9.856;2022-10-16T05:16:15;10.95;;;3.60;;
52838;SDS011;39219;53.678;9.856;2022-10-16T05:18:42;4.80;;;2.67;;
52838;SDS011;39219;53.678;9.856;2022-10-16T05:21:10;7.38;;;2.88;;
52838;SDS011;39219;53.678;9.856;2022-10-16T05:23:36;7.05;;;3.30;;
52838;SDS011;39219;53.678;9.856;2022-10-16T05:26:03;8.52;;;3.20;;
52838;SDS011;39219;53.678;9.856;2022-10-16T05:28:29;6.35;;;3.25;;
52838;SDS011;39219;53.678;9.856;2022-10-16T05:30:56;9.15;;;4.10;;
52838;SDS011;39219;53.678;9.856;2022-10-16T05:33:24;8.50;;;3.50;;
52838;SDS011;39219;53.678;9.856;2022-10-16T05:35:51;9.02;;;3.42;;
52838;SDS011;39219;53.678;9.856;2022-10-16T05:38:19;8.60;;;3.85;;
52838;SDS011;39219;53.678;9.856;2022-10-16T05:40:50;8.95;;;3.53;;
52838;SDS011;39219;53.678;9.856;2022-10-16T05:43:17;9.15;;;4.18;;
52838;SDS011;39219;53.678;9.856;2022-10-16T05:45:44;9.77;;;4.28;;
52838;SDS011;39219;53.678;9.856;2022-10-16T05:48:10;10.20;;;4.20;;
52838;SDS011;39219;53.678;9.856;2022-10-16T05:50:36;11.02;;;4.68;;
52838;SDS011;39219;53.678;9.856;2022-10-16T05:53:03;9.32;;;4.80;;
52838;SDS011;39219;53.678;9.856;2022-10-16T05:55:31;10.45;;;4.70;;
52838;SDS011;39219;53.678;9.856;2022-10-16T05:57:57;11.23;;;4.80;;
52838;SDS011;39219;53.678;9.856;2022-10-16T06:00:23;10.90;;;4.93;;
52838;SDS011;39219;53.678;9.856;2022-10-16T06:02:50;11.48;;;5.05;;
52838;SDS011;39219;53.678;9.856;2022-10-16T06:05:16;9.68;;;5.00;;
52838;SDS011;39219;53.678;9.856;2022-10-16T06:07:43;9.60;;;4.85;;
52838;SDS011;39219;53.678;9.856;2022-10-16T06:10:09;9.48;;;4.65;;
52838;SDS011;39219;53.678;9.856;2022-10-16T06:12:37;9.55;;;4.95;;
52838;SDS011;39219;53.678;9.856;2022-10-16T06:15:04;9.63;;;4.57;;
52838;SDS011;39219;53.678;9.856;2022-10-16T06:17:31;9.15;;;4.78;;
52838;SDS011;39219;53.678;9.856;2022-10-16T06:19:57;10.88;;;5.22;;
52838;SDS011;39219;53.678;9.856;2022-10-16T06:22:23;11.02;;;5.15;;
52838;SDS011;39219;53.678;9.856;2022-10-16T06:24:50;9.80;;;4.70;;
52838;SDS011;39219;53.678;9.856;2022-10-16T06:27:16;8.48;;;4.68;;
52838;SDS011;39219;53.678;9.856;2022-10-16T06:29:44;10.52;;;5.28;;
52838;SDS011;39219;53.678;9.856;2022-10-16T06:32:11;10.23;;;4.95;;
52838;SDS011;39219;53.678;9.856;2022-10-16T06:34:37;12.25;;;4.90;;
52838;SDS011;39219;53.678;9.856;2022-10-16T06:37:05;10.15;;;4.78;;
52838;SDS011;39219;53.678;9.856;2022-10-16T06:39:31;9.82;;;4.97;;
52838;SDS011;39219;53.678;9.856;2022-10-16T06:41:57;11.90;;;5.25;;
52838;SDS011;39219;53.678;9.856;2022-10-16T06:44:24;8.93;;;5.00;;
52838;SDS011;39219;53.678;9.856;2022-10-16T06:46:52;10.20;;;4.72;;
52838;SDS011;39219;53.678;9.856;2022-10-16T06:49:18;10.52;;;4.03;;
52838;SDS011;39219;53.678;9.856;2022-10-16T06:51:47;8.50;;;3.90;;
52838;SDS011;39219;53.678;9.856;2022-10-16T06:54:14;8.68;;;3.80;;
52838;SDS011;39219;53.678;9.856;2022-10-16T06:56:41;10.75;;;4.03;;
52838;SDS011;39219;53.678;9.856;2022-10-16T06:59:07;8.52;;;3.95;;
52838;SDS011;39219;53.678;9.856;2022-10-16T07:01:34;6.85;;;3.85;;
52838;SDS011;39219;53.678;9.856;2022-10-16T07:04:01;8.82;;;4.18;;
52838;SDS011;39219;53.678;9.856;2022-10-16T07:06:30;8.30;;;3.88;;
52838;SDS011;39219;53.678;9.856;2022-10-16T07:08:58;9.77;;;4.45;;
52838;SDS011;39219;53.678;9.856;2022-10-16T07:11:24;8.45;;;4.03;;
52838;SDS011;39219;53.678;9.856;2022-10-16T07:13:51;7.05;;;4.00;;
52838;SDS011;39219;53.678;9.856;2022-10-16T07:16:18;8.93;;;3.90;;
52838;SDS011;39219;53.678;9.856;2022-10-16T07:18:45;9.75;;;4.70;;
52838;SDS011;39219;53.678;9.856;2022-10-16T07:21:15;14.35;;;4.57;;
52838;SDS011;39219;53.678;9.856;2022-10-16T07:23:44;8.23;;;4.72;;
52838;SDS011;39219;53.678;9.856;2022-10-16T07:26:11;9.25;;;4.45;;
52838;SDS011;39219;53.678;9.856;2022-10-16T07:28:38;10.52;;;4.78;;
52838;SDS011;39219;53.678;9.856;2022-10-16T07:31:05;9.35;;;4.70;;
52838;SDS011;39219;53.678;9.856;2022-10-16T07:33:36;11.85;;;4.53;;
52838;SDS011;39219;53.678;9.856;2022-10-16T07:36:03;10.70;;;4.53;;
52838;SDS011;39219;53.678;9.856;2022-10-16T07:38:32;7.97;;;4.60;;
52838;SDS011;39219;53.678;9.856;2022-10-16T07:40:58;9.43;;;4.15;;
52838;SDS011;39219;53.678;9.856;2022-10-16T07:43:26;10.80;;;4.70;;
52838;SDS011;39219;53.678;9.856;2022-10-16T07:45:53;7.38;;;4.20;;
52838;SDS011;39219;53.678;9.856;2022-10-16T07:48:21;9.00;;;4.32;;
52838;SDS011;39219;53.678;9.856;2022-10-16T07:50:48;9.77;;;4.63;;
52838;SDS011;39219;53.678;9.856;2022-10-16T07:53:15;10.38;;;4.75;;
52838;SDS011;39219;53.678;9.856;2022-10-16T07:55:43;7.88;;;4.47;;
52838;SDS011;39219;53.678;9.856;2022-10-16T07:58:09;10.02;;;4.70;;
52838;SDS011;39219;53.678;9.856;2022-10-16T08:00:36;9.85;;;4.88;;
52838;SDS011;39219;53.678;9.856;2022-10-16T08:03:03;9.10;;;4.93;;
52838;SDS011;39219;53.678;9.856;2022-10-16T08:05:30;9.63;;;4.85;;
52838;SDS011;39219;53.678;9.856;2022-10-16T08:07:58;8.82;;;5.00;;
52838;SDS011;39219;53.678;9.856;2022-10-16T08:10:26;10.05;;;4.32;;
52838;SDS011;39219;53.678;9.856;2022-10-16T08:12:54;9.48;;;4.55;;
52838;SDS011;39219;53.678;9.856;2022-10-16T08:15:21;8.55;;;4.38;;
52838;SDS011;39219;53.678;9.856;2022-10-16T08:17:53;7.90;;;4.20;;
52838;SDS011;39219;53.678;9.856;2022-10-16T08:20:21;7.97;;;4.18;;
52838;SDS011;39219;53.678;9.856;2022-10-16T08:22:47;8.93;;;4.30;;
52838;SDS011;39219;53.678;9.856;2022-10-16T08:25:14;7.40;;;3.85;;
52838;SDS011;39219;53.678;9.856;2022-10-16T08:27:40;8.20;;;4.20;;
52838;SDS011;39219;53.678;9.856;2022-10-16T08:30:09;7.70;;;4.18;;
52838;SDS011;39219;53.678;9.856;2022-10-16T08:32:36;6.05;;;3.80;;
52838;SDS011;39219;53.678;9.856;2022-10-16T08:35:03;9.65;;;4.25;;
52838;SDS011;39219;53.678;9.856;2022-10-16T08:37:30;7.75;;;4.57;;
52838;SDS011;39219;53.678;9.856;2022-10-16T08:39:57;8.75;;;3.70;;
52838;SDS011;39219;53.678;9.856;2022-10-16T08:42:28;8.88;;;4.20;;
52838;SDS011;39219;53.678;9.856;2022-10-16T08:45:10;9.27;;;4.30;;
52838;SDS011;39219;53.678;9.856;2022-10-16T08:47:52;7.72;;;3.95;;
52838;SDS011;39219;53.678;9.856;2022-10-16T08:50:27;6.32;;;3.40;;
52838;SDS011;39219;53.678;9.856;2022-10-16T08:52:55;6.53;;;3.90;;
52838;SDS011;39219;53.678;9.856;2022-10-16T08:55:28;7.40;;;3.80;;
52838;SDS011;39219;53.678;9.856;2022-10-16T08:57:58;7.95;;;3.80;;
52838;SDS011;39219;53.678;9.856;2022-10-16T09:00:26;7.88;;;3.60;;
52838;SDS011;39219;53.678;9.856;2022-10-16T09:02:56;6.43;;;3.60;;
52838;SDS011;39219;53.678;9.856;2022-10-16T09:05:35;10.02;;;3.30;;
52838;SDS011;39219;53.678;9.856;2022-10-16T09:08:16;6.57;;;3.40;;
52838;SDS011;39219;53.678;9.856;2022-10-16T09:10:50;9.43;;;3.22;;
52838;SDS011;39219;53.678;9.856;2022-10-16T09:13:23;7.30;;;3.55;;
52838;SDS011;39219;53.678;9.856;2022-10-16T09:15:58;7.68;;;3.17;;
52838;SDS011;39219;53.678;9.856;2022-10-16T09:18:35;4.72;;;3.03;;
52838;SDS011;39219;53.678;9.856;2022-10-16T09:21:09;4.93;;;2.70;;
52838;SDS011;39219;53.678;9.856;2022-10-16T09:23:42;7.05;;;2.97;;
52838;SDS011;39219;53.678;9.856;2022-10-16T09:26:09;5.35;;;2.78;;
52838;SDS011;39219;53.678;9.856;2022-10-16T09:28:38;5.13;;;2.88;;
52838;SDS011;39219;53.678;9.856;2022-10-16T09:31:07;5.72;;;2.70;;
52838;SDS011;39219;53.678;9.856;2022-10-16T09:33:39;6.63;;;2.92;;
52838;SDS011;39219;53.678;9.856;2022-10-16T09:36:08;5.63;;;2.70;;
52838;SDS011;39219;53.678;9.856;2022-10-16T09:38:37;6.78;;;2.80;;
52838;SDS011;39219;53.678;9.856;2022-10-16T09:41:10;6.43;;;3.25;;
52838;SDS011;39219;53.678;9.856;2022-10-16T09:43:46;4.65;;;2.70;;
52838;SDS011;39219;53.678;9.856;2022-10-16T09:46:28;7.05;;;2.80;;
52838;SDS011;39219;53.678;9.856;2022-10-16T09:48:57;5.60;;;2.85;;
52838;SDS011;39219;53.678;9.856;2022-10-16T09:51:26;4.95;;;2.88;;
52838;SDS011;39219;53.678;9.856;2022-10-16T09:53:55;6.50;;;2.67;;
52838;SDS011;39219;53.678;9.856;2022-10-16T09:56:24;5.55;;;2.42;;
52838;SDS011;39219;53.678;9.856;2022-10-16T09:58:52;5.30;;;2.35;;
52838;SDS011;39219;53.678;9.856;2022-10-16T10:01:19;5.35;;;2.10;;
52838;SDS011;39219;53.678;9.856;2022-10-16T10:03:49;5.50;;;2.50;;
52838;SDS011;39219;53.678;9.856;2022-10-16T10:06:18;6.95;;;2.60;;
52838;SDS011;39219;53.678;9.856;2022-10-16T10:08:55;5.82;;;2.35;;
52838;SDS011;39219;53.678;9.856;2022-10-16T10:14:20;4.85;;;2.28;;
52838;SDS011;39219;53.678;9.856;2022-10-16T10:16:52;5.63;;;2.10;;
52838;SDS011;39219;53.678;9.856;2022-10-16T10:19:29;3.80;;;1.83;;
52838;SDS011;39219;53.678;9.856;2022-10-16T10:21:55;6.07;;;2.50;;
52838;SDS011;39219;53.678;9.856;2022-10-16T10:24:21;4.50;;;2.40;;
52838;SDS011;39219;53.678;9.856;2022-10-16T10:26:49;5.55;;;2.10;;
52838;SDS011;39219;53.678;9.856;2022-10-16T10:29:25;6.22;;;2.10;;
52838;SDS011;39219;53.678;9.856;2022-10-16T10:32:03;4.03;;;2.05;;
52838;SDS011;39219;53.678;9.856;2022-10-16T10:34:58;6.10;;;1.90;;
52838;SDS011;39219;53.678;9.856;2022-10-16T10:37:37;6.95;;;2.00;;
52838;SDS011;39219;53.678;9.856;2022-10-16T10:40:18;6.28;;;2.20;;
52838;SDS011;39219;53.678;9.856;2022-10-16T10:42:55;5.85;;;2.15;;
52838;SDS011;39219;53.678;9.856;2022-10-16T10:45:26;4.95;;;1.80;;
52838;SDS011;39219;53.678;9.856;2022-10-16T10:48:03;4.05;;;1.58;;
52838;SDS011;39219;53.678;9.856;2022-10-16T10:50:45;6.82;;;1.83;;
52838;SDS011;39219;53.678;9.856;2022-10-16T10:53:21;5.18;;;1.75;;
52838;SDS011;39219;53.678;9.856;2022-10-16T10:55:57;3.55;;;1.70;;
52838;SDS011;39219;53.678;9.856;2022-10-16T10:58:37;5.80;;;1.83;;
52838;SDS011;39219;53.678;9.856;2022-10-16T11:01:14;3.70;;;1.77;;
52838;SDS011;39219;53.678;9.856;2022-10-16T11:03:54;6.43;;;1.83;;
52838;SDS011;39219;53.678;9.856;2022-10-16T11:06:35;4.70;;;1.88;;
52838;SDS011;39219;53.678;9.856;2022-10-16T11:09:07;5.10;;;1.42;;
52838;SDS011;39219;53.678;9.856;2022-10-16T11:11:40;5.40;;;1.83;;
52838;SDS011;39219;53.678;9.856;2022-10-16T11:14:11;5.15;;;1.80;;
52838;SDS011;39219;53.678;9.856;2022-10-16T11:16:43;5.53;;;1.40;;
52838;SDS011;39219;53.678;9.856;2022-10-16T11:19:19;4.72;;;1.80;;
52838;SDS011;39219;53.678;9.856;2022-10-16T11:21:55;5.70;;;1.85;;
52838;SDS011;39219;53.678;9.856;2022-10-16T11:24:32;4.50;;;1.65;;
52838;SDS011;39219;53.678;9.856;2022-10-16T11:27:07;6.85;;;1.55;;
52838;SDS011;39219;53.678;9.856;2022-10-16T11:29:35;7.20;;;1.60;;
52838;SDS011;39219;53.678;9.856;2022-10-16T11:32:24;3.15;;;1.30;;
52838;SDS011;39219;53.678;9.856;2022-10-16T11:34:57;3.95;;;1.40;;
52838;SDS011;39219;53.678;9.856;2022-10-16T11:37:30;3.75;;;1.45;;
52838;SDS011;39219;53.678;9.856;2022-10-16T11:40:04;6.80;;;1.65;;
52838;SDS011;39219;53.678;9.856;2022-10-16T11:42:44;4.65;;;1.50;;
52838;SDS011;39219;53.678;9.856;2022-10-16T11:47:51;5.80;;;1.60;;
52838;SDS011;39219;53.678;9.856;2022-10-16T11:50:25;4.35;;;1.67;;
52838;SDS011;39219;53.678;9.856;2022-10-16T11:52:57;5.88;;;1.75;;
52838;SDS011;39219;53.678;9.856;2022-10-16T11:55:30;5.75;;;1.67;;
52838;SDS011;39219;53.678;9.856;2022-10-16T11:58:01;2.38;;;1.10;;
52838;SDS011;39219;53.678;9.856;2022-10-16T12:00:33;3.90;;;1.25;;
52838;SDS011;39219;53.678;9.856;2022-10-16T12:03:05;3.88;;;1.38;;
52838;SDS011;39219;53.678;9.856;2022-10-16T12:05:46;2.33;;;1.17;;
52838;SDS011;39219;53.678;9.856;2022-10-16T12:08:22;4.75;;;1.45;;
52838;SDS011;39219;53.678;9.856;2022-10-16T12:10:50;5.07;;;1.45;;
52838;SDS011;39219;53.678;9.856;2022-10-16T12:13:28;6.35;;;1.83;;
52838;SDS011;39219;53.678;9.856;2022-10-16T12:16:03;4.65;;;1.42;;
52838;SDS011;39219;53.678;9.856;2022-10-16T12:18:31;4.90;;;1.65;;
52838;SDS011;39219;53.678;9.856;2022-10-16T12:20:58;5.80;;;1.63;;
52838;SDS011;39219;53.678;9.856;2022-10-16T12:23:31;2.10;;;1.30;;
52838;SDS011;39219;53.678;9.856;2022-10-16T12:25:59;5.10;;;1.20;;
52838;SDS011;39219;53.678;9.856;2022-10-16T12:28:27;3.90;;;1.30;;
52838;SDS011;39219;53.678;9.856;2022-10-16T12:30:56;5.63;;;2.03;;
52838;SDS011;39219;53.678;9.856;2022-10-16T12:33:25;3.85;;;1.20;;
52838;SDS011;39219;53.678;9.856;2022-10-16T12:35:53;4.20;;;1.20;;
52838;SDS011;39219;53.678;9.856;2022-10-16T12:38:21;3.72;;;1.30;;
52838;SDS011;39219;53.678;9.856;2022-10-16T12:40:58;3.83;;;1.17;;
52838;SDS011;39219;53.678;9.856;2022-10-16T12:43:27;4.47;;;1.55;;
52838;SDS011;39219;53.678;9.856;2022-10-16T12:46:03;3.40;;;1.17;;
52838;SDS011;39219;53.678;9.856;2022-10-16T12:48:46;4.10;;;1.60;;
52838;SDS011;39219;53.678;9.856;2022-10-16T12:51:21;6.97;;;1.23;;
52838;SDS011;39219;53.678;9.856;2022-10-16T12:53:57;4.00;;;1.27;;
52838;SDS011;39219;53.678;9.856;2022-10-16T12:56:27;4.50;;;1.15;;
52838;SDS011;39219;53.678;9.856;2022-10-16T12:59:03;5.63;;;1.65;;
52838;SDS011;39219;53.678;9.856;2022-10-16T13:01:38;3.83;;;1.20;;
52838;SDS011;39219;53.678;9.856;2022-10-16T13:04:19;6.60;;;1.45;;
52838;SDS011;39219;53.678;9.856;2022-10-16T13:06:59;4.90;;;1.52;;
52838;SDS011;39219;53.678;9.856;2022-10-16T13:09:44;6.53;;;1.25;;
52838;SDS011;39219;53.678;9.856;2022-10-16T13:12:27;4.97;;;1.45;;
52838;SDS011;39219;53.678;9.856;2022-10-16T13:15:12;2.75;;;1.25;;
52838;SDS011;39219;53.678;9.856;2022-10-16T13:17:50;6.53;;;1.60;;
52838;SDS011;39219;53.678;9.856;2022-10-16T13:20:24;3.25;;;1.33;;
52838;SDS011;39219;53.678;9.856;2022-10-16T13:22:59;5.72;;;1.60;;
52838;SDS011;39219;53.678;9.856;2022-10-16T13:25:35;5.55;;;1.50;;
52838;SDS011;39219;53.678;9.856;2022-10-16T13:28:12;4.63;;;1.40;;
52838;SDS011;39219;53.678;9.856;2022-10-16T13:30:39;5.40;;;1.77;;
52838;SDS011;39219;53.678;9.856;2022-10-16T13:33:12;5.72;;;1.30;;
52838;SDS011;39219;53.678;9.856;2022-10-16T13:35:47;4.72;;;1.45;;
52838;SDS011;39219;53.678;9.856;2022-10-16T13:38:16;4.97;;;1.17;;
52838;SDS011;39219;53.678;9.856;2022-10-16T13:40:51;3.63;;;1.05;;
52838;SDS011;39219;53.678;9.856;2022-10-16T13:43:22;3.55;;;1.30;;
52838;SDS011;39219;53.678;9.856;2022-10-16T13:45:52;4.20;;;1.25;;
52838;SDS011;39219;53.678;9.856;2022-10-16T13:48:23;3.72;;;1.23;;
52838;SDS011;39219;53.678;9.856;2022-10-16T13:51:00;5.03;;;1.35;;
52838;SDS011;39219;53.678;9.856;2022-10-16T13:53:29;3.88;;;1.30;;
52838;SDS011;39219;53.678;9.856;2022-10-16T13:55:56;4.47;;;1.20;;
52838;SDS011;39219;53.678;9.856;2022-10-16T13:58:26;4.05;;;1.40;;
52838;SDS011;39219;53.678;9.856;2022-10-16T14:00:53;5.95;;;1.65;;
52838;SDS011;39219;53.678;9.856;2022-10-16T14:03:25;5.65;;;1.42;;
52838;SDS011;39219;53.678;9.856;2022-10-16T14:05:53;6.07;;;1.50;;
52838;SDS011;39219;53.678;9.856;2022-10-16T14:08:23;3.45;;;1.13;;
52838;SDS011;39219;53.678;9.856;2022-10-16T14:10:52;5.70;;;1.55;;
52838;SDS011;39219;53.678;9.856;2022-10-16T14:13:24;6.63;;;1.42;;
52838;SDS011;39219;53.678;9.856;2022-10-16T14:15:58;7.05;;;1.52;;
52838;SDS011;39219;53.678;9.856;2022-10-16T14:18:28;6.15;;;1.45;;
52838;SDS011;39219;53.678;9.856;2022-10-16T14:20:55;7.78;;;1.88;;
52838;SDS011;39219;53.678;9.856;2022-10-16T14:23:30;7.70;;;1.50;;
52838;SDS011;39219;53.678;9.856;2022-10-16T14:26:06;4.70;;;1.38;;
52838;SDS011;39219;53.678;9.856;2022-10-16T14:28:41;4.82;;;1.20;;
52838;SDS011;39219;53.678;9.856;2022-10-16T14:33:54;6.05;;;1.42;;
52838;SDS011;39219;53.678;9.856;2022-10-16T14:36:21;6.45;;;1.63;;
52838;SDS011;39219;53.678;9.856;2022-10-16T14:38:49;5.47;;;1.60;;
52838;SDS011;39219;53.678;9.856;2022-10-16T14:41:22;6.85;;;1.60;;
52838;SDS011;39219;53.678;9.856;2022-10-16T14:43:52;6.88;;;1.40;;
52838;SDS011;39219;53.678;9.856;2022-10-16T14:46:21;7.07;;;1.60;;
52838;SDS011;39219;53.678;9.856;2022-10-16T14:48:55;10.03;;;1.83;;
52838;SDS011;39219;53.678;9.856;2022-10-16T14:51:26;5.53;;;1.67;;
52838;SDS011;39219;53.678;9.856;2022-10-16T14:53:53;7.82;;;1.58;;
52838;SDS011;39219;53.678;9.856;2022-10-16T14:56:20;4.47;;;1.25;;
52838;SDS011;39219;53.678;9.856;2022-10-16T14:58:50;5.45;;;1.30;;
52838;SDS011;39219;53.678;9.856;2022-10-16T15:01:18;5.10;;;1.58;;
52838;SDS011;39219;53.678;9.856;2022-10-16T15:03:45;6.85;;;1.58;;
52838;SDS011;39219;53.678;9.856;2022-10-16T15:06:12;5.97;;;1.60;;
52838;SDS011;39219;53.678;9.856;2022-10-16T15:08:40;7.00;;;1.60;;
52838;SDS011;39219;53.678;9.856;2022-10-16T15:11:07;6.75;;;1.70;;